Terminal Aerodrome Forecast
Issued by NWS

Home | Current Version | Previous Version | Graphics & Text | Print | Product List | Glossary On
Versions: 1 2 3 4 5 6 7 8 9 10 11 12 13 14 15 16 17 18 19 20
000
FTUS43 KIWX 152200 AAA
TAFSBN
TAF AMD
KSBN 152231Z 1523/1618 14011KT P6SM SCT015 OVC060
     FM160000 14009KT 6SM -RA BR OVC015
     FM160200 14010KT 4SM -RA BR OVC006
     FM160500 13008KT 2SM -RA BR OVC003=

USA.gov is the U.S. government's official web portal to all federal, state and local government web resources and services.